Time;durP1;ratioP1;P1;durP2;ratioP2;P2;SDS_P1;SDS_P2;PMS_P1;PMS_P2;Temp;Humidity;BMP_temperature;BMP_pressure;BME280_temperature;BME280_humidity;BME280_pressure;Samples;Min_cycle;Max_cycle;Signal;HPM_P1;HPM_P2
2023/04/30 00:00:01;;;;;;;;;;;9.00;99.90;;;;;;4991233;28;19935;-48
2023/04/30 00:02:28;;;;;;;;;;;9.00;99.90;;;;;;4992975;28;20323;-50
2023/04/30 00:04:54;;;;;;;;;;;8.90;99.90;;;;;;4992790;28;20448;-47
2023/04/30 00:07:21;;;;;;;;;;;8.80;99.90;;;;;;4990381;28;20025;-50
2023/04/30 00:09:50;;;;;;;;;;;8.80;99.90;;;;;;4990367;28;19963;-46
2023/04/30 00:12:16;;;;;;;;;;;8.70;99.90;;;;;;4993035;28;19935;-49
2023/04/30 00:14:43;;;;;;;;;;;8.60;99.90;;;;;;4992347;28;19986;-48
2023/04/30 00:17:10;;;;;;;;;;;8.60;99.90;;;;;;4991876;28;19941;-46
2023/04/30 00:19:36;;;;;;;;;;;8.50;99.90;;;;;;4992522;28;19939;-49
2023/04/30 00:22:04;;;;;;;;;;;8.50;99.90;;;;;;4992228;28;20060;-51
2023/04/30 00:24:30;;;;;;;;;;;8.40;99.90;;;;;;4992650;28;19963;-51
2023/04/30 00:26:58;;;;;;;;;;;8.50;99.90;;;;;;4993971;28;20388;-44
2023/04/30 00:29:25;;;;;;;;;;;8.40;99.90;;;;;;4990702;28;19992;-47
2023/04/30 00:31:52;;;;;;;;;;;8.40;99.90;;;;;;4989687;28;20465;-50
2023/04/30 00:34:18;;;;;;;;;;;8.40;99.90;;;;;;4991540;28;20019;-51
2023/04/30 00:36:45;;;;;;;;;;;8.40;99.90;;;;;;4991699;28;19964;-47
2023/04/30 00:39:12;;;;;;;;;;;8.40;99.90;;;;;;4990485;28;19937;-47
2023/04/30 00:41:38;;;;;;;;;;;8.30;99.90;;;;;;4991181;28;19934;-46
2023/04/30 00:44:06;;;;;;;;;;;8.30;99.90;;;;;;4991194;28;20028;-47
2023/04/30 00:46:33;;;;;;;;;;;8.30;99.90;;;;;;4989644;28;20017;-48
2023/04/30 00:49:03;;;;;;;;;;;8.20;99.90;;;;;;4990385;28;20357;-50
2023/04/30 00:51:30;;;;;;;;;;;8.20;99.90;;;;;;4986947;28;19942;-52
2023/04/30 00:53:57;;;;;;;;;;;8.20;99.90;;;;;;4990128;28;19979;-51
2023/04/30 00:56:23;;;;;;;;;;;8.20;99.90;;;;;;4991365;28;19978;-51
2023/04/30 00:58:53;;;;;;;;;;;8.10;99.90;;;;;;4992001;28;19975;-46
2023/04/30 01:01:21;;;;;;;;;;;8.10;99.90;;;;;;4991115;28;19939;-49
2023/04/30 01:03:47;;;;;;;;;;;8.00;99.90;;;;;;4992141;28;20342;-47
2023/04/30 01:06:14;;;;;;;;;;;7.90;99.90;;;;;;4990853;28;20355;-50
2023/04/30 01:08:41;;;;;;;;;;;7.90;99.90;;;;;;4990366;28;20019;-49
2023/04/30 01:11:13;;;;;;;;;;;7.90;99.90;;;;;;4990780;28;19938;-51
2023/04/30 01:13:40;;;;;;;;;;;7.90;99.90;;;;;;4991587;28;20024;-50
2023/04/30 01:16:09;;;;;;;;;;;7.80;99.90;;;;;;4990720;28;19994;-49
2023/04/30 01:18:37;;;;;;;;;;;7.80;99.90;;;;;;4987722;28;19961;-54
2023/04/30 01:21:05;;;;;;;;;;;7.70;99.90;;;;;;4990838;28;19965;-50
2023/04/30 01:23:37;;;;;;;;;;;7.60;99.90;;;;;;4991557;28;20496;-50
2023/04/30 01:26:08;;;;;;;;;;;7.60;99.90;;;;;;4990439;28;19957;-50
2023/04/30 01:28:36;;;;;;;;;;;7.60;99.90;;;;;;4996068;28;19925;-45
2023/04/30 01:31:03;;;;;;;;;;;7.60;99.90;;;;;;4994381;28;20035;-50
2023/04/30 01:33:29;;;;;;;;;;;7.60;99.90;;;;;;4996492;28;20033;-49
2023/04/30 01:35:59;;;;;;;;;;;7.50;99.90;;;;;;4995527;28;20367;-52
2023/04/30 01:38:28;;;;;;;;;;;7.50;99.90;;;;;;4996834;28;19944;-48
2023/04/30 01:40:55;;;;;;;;;;;7.50;99.90;;;;;;4994124;28;19934;-47
2023/04/30 01:43:24;;;;;;;;;;;7.40;99.90;;;;;;4994340;28;19993;-43
2023/04/30 01:45:57;;;;;;;;;;;7.40;99.90;;;;;;4994100;28;19933;-47
2023/04/30 01:48:27;;;;;;;;;;;7.40;99.90;;;;;;4995857;28;20263;-52
2023/04/30 01:50:55;;;;;;;;;;;7.30;99.90;;;;;;4995015;28;19941;-54
2023/04/30 01:53:23;;;;;;;;;;;7.30;99.90;;;;;;4975939;28;20023;-49
2023/04/30 01:55:51;;;;;;;;;;;7.30;99.90;;;;;;4991234;28;19992;-49
2023/04/30 01:58:18;;;;;;;;;;;7.20;99.90;;;;;;4994573;28;20028;-50
2023/04/30 02:00:45;;;;;;;;;;;7.20;99.90;;;;;;4994809;28;19980;-52
2023/04/30 02:03:13;;;;;;;;;;;7.20;99.90;;;;;;4992950;28;20377;-49
2023/04/30 02:05:39;;;;;;;;;;;7.20;99.90;;;;;;4996390;28;20021;-47
2023/04/30 02:08:06;;;;;;;;;;;7.10;99.90;;;;;;4993300;28;19945;-52
2023/04/30 02:10:33;;;;;;;;;;;7.10;99.90;;;;;;4993908;28;20038;-47
2023/04/30 02:13:00;;;;;;;;;;;7.10;99.90;;;;;;4993987;28;19970;-51
2023/04/30 02:15:26;;;;;;;;;;;7.10;99.90;;;;;;4994715;28;21249;-53
2023/04/30 02:17:53;;;;;;;;;;;7.00;99.90;;;;;;4994893;28;19995;-48
2023/04/30 02:20:21;;;;;;;;;;;7.00;99.90;;;;;;4994098;28;20013;-55
2023/04/30 02:22:47;;;;;;;;;;;7.00;99.90;;;;;;4992710;28;19957;-52
2023/04/30 02:25:14;;;;;;;;;;;6.90;99.90;;;;;;4997796;28;19987;-50
2023/04/30 02:27:41;;;;;;;;;;;6.90;99.90;;;;;;5013996;28;20017;-51
2023/04/30 02:30:08;;;;;;;;;;;6.90;99.90;;;;;;4996189;28;20008;-49
2023/04/30 02:32:34;;;;;;;;;;;6.80;99.90;;;;;;4993137;28;19965;-45
2023/04/30 02:35:01;;;;;;;;;;;6.90;99.90;;;;;;4995965;28;19940;-52
2023/04/30 02:37:29;;;;;;;;;;;6.80;99.90;;;;;;4994056;28;20025;-51
2023/04/30 02:39:56;;;;;;;;;;;6.80;99.90;;;;;;4994891;28;19987;-51
2023/04/30 02:42:22;;;;;;;;;;;6.70;99.90;;;;;;4993451;28;19944;-48
2023/04/30 02:44:49;;;;;;;;;;;6.70;99.90;;;;;;4993894;28;19939;-50
2023/04/30 02:47:16;;;;;;;;;;;6.70;99.90;;;;;;4994932;28;20394;-51
2023/04/30 02:49:42;;;;;;;;;;;6.70;99.90;;;;;;4994417;28;20017;-49
2023/04/30 02:52:09;;;;;;;;;;;6.60;99.90;;;;;;4994006;28;19987;-50
2023/04/30 02:54:37;;;;;;;;;;;6.60;99.90;;;;;;4994301;28;20030;-48
2023/04/30 02:57:03;;;;;;;;;;;6.60;99.90;;;;;;4994316;28;19981;-46
2023/04/30 02:59:30;;;;;;;;;;;6.60;99.90;;;;;;4993486;28;20036;-52
2023/04/30 03:01:56;;;;;;;;;;;6.50;99.90;;;;;;4993127;28;20355;-50
2023/04/30 03:04:23;;;;;;;;;;;6.50;99.90;;;;;;4994300;28;19991;-53
2023/04/30 03:06:50;;;;;;;;;;;6.40;99.90;;;;;;4993762;28;19966;-48
2023/04/30 03:09:16;;;;;;;;;;;6.40;99.90;;;;;;4994217;28;19981;-54
2023/04/30 03:11:44;;;;;;;;;;;6.40;99.90;;;;;;4993725;28;19941;-53
2023/04/30 03:14:11;;;;;;;;;;;6.30;99.90;;;;;;4994477;28;19939;-53
2023/04/30 03:16:38;;;;;;;;;;;6.30;99.90;;;;;;4991893;28;20375;-49
2023/04/30 03:19:04;;;;;;;;;;;6.30;99.90;;;;;;4991108;28;19967;-52
2023/04/30 03:21:31;;;;;;;;;;;6.30;99.90;;;;;;4993442;28;19965;-47
2023/04/30 03:23:58;;;;;;;;;;;6.20;99.90;;;;;;4991994;28;20431;-49
2023/04/30 03:26:24;;;;;;;;;;;6.20;99.90;;;;;;5006555;28;20003;-52
2023/04/30 03:28:54;;;;;;;;;;;6.20;99.90;;;;;;4995282;28;19941;-47
2023/04/30 03:31:20;;;;;;;;;;;6.20;99.90;;;;;;4993852;28;19936;-45
2023/04/30 03:33:47;;;;;;;;;;;6.20;99.90;;;;;;4993866;28;19973;-49
2023/04/30 03:36:13;;;;;;;;;;;6.20;99.90;;;;;;4992012;28;19985;-48
2023/04/30 03:38:40;;;;;;;;;;;6.10;99.90;;;;;;4990893;28;20000;-51
2023/04/30 03:41:07;;;;;;;;;;;6.10;99.90;;;;;;4993680;28;20042;-49
2023/04/30 03:43:33;;;;;;;;;;;6.00;99.90;;;;;;4993322;28;20446;-47
2023/04/30 03:46:02;;;;;;;;;;;6.00;99.90;;;;;;4994148;28;19934;-50
2023/04/30 03:48:28;;;;;;;;;;;5.90;99.90;;;;;;4992861;28;19992;-46
2023/04/30 03:50:55;;;;;;;;;;;6.00;99.90;;;;;;4990990;28;19985;-54
2023/04/30 03:53:21;;;;;;;;;;;6.00;99.90;;;;;;4994187;28;19961;-53
2023/04/30 03:55:49;;;;;;;;;;;5.90;99.90;;;;;;4992435;28;19937;-52
2023/04/30 03:58:15;;;;;;;;;;;6.10;99.90;;;;;;4991955;28;19959;-50
2023/04/30 04:00:44;;;;;;;;;;;6.00;99.90;;;;;;4992266;28;20000;-49
2023/04/30 04:03:12;;;;;;;;;;;6.00;99.90;;;;;;4990980;28;20005;-49
2023/04/30 04:05:39;;;;;;;;;;;6.00;99.90;;;;;;4991880;28;19937;-50
2023/04/30 04:08:06;;;;;;;;;;;6.00;99.90;;;;;;4992848;28;20316;-46
2023/04/30 04:10:33;;;;;;;;;;;6.10;99.90;;;;;;4986210;28;19945;-44
2023/04/30 04:12:59;;;;;;;;;;;6.10;99.90;;;;;;4987769;28;20343;-54
2023/04/30 04:15:26;;;;;;;;;;;6.20;99.90;;;;;;4991141;28;20029;-50
2023/04/30 04:17:52;;;;;;;;;;;6.20;99.90;;;;;;4988655;28;19979;-51
2023/04/30 04:20:21;;;;;;;;;;;6.20;99.90;;;;;;4993271;28;20037;-52
2023/04/30 04:22:47;;;;;;;;;;;6.20;99.90;;;;;;4992229;28;20060;-50
2023/04/30 04:25:14;;;;;;;;;;;6.30;99.90;;;;;;4994751;28;19959;-53
2023/04/30 04:27:41;;;;;;;;;;;6.30;99.90;;;;;;5007520;28;20034;-48
2023/04/30 04:30:08;;;;;;;;;;;6.30;99.90;;;;;;4993885;28;19921;-50
2023/04/30 04:32:45;;;;;;;;;;;6.30;99.90;;;;;;4992361;28;19979;-50
2023/04/30 04:35:11;;;;;;;;;;;6.30;99.90;;;;;;4991688;28;19945;-47
2023/04/30 04:37:39;;;;;;;;;;;6.30;99.90;;;;;;4991446;28;20447;-49
2023/04/30 04:40:07;;;;;;;;;;;6.30;99.90;;;;;;4990711;28;19981;-52
2023/04/30 04:42:33;;;;;;;;;;;6.30;99.90;;;;;;4990958;28;19987;-47
2023/04/30 04:45:02;;;;;;;;;;;6.40;99.90;;;;;;4991410;28;20039;-54
2023/04/30 04:47:29;;;;;;;;;;;6.40;99.90;;;;;;4991987;28;19943;-52
2023/04/30 04:49:56;;;;;;;;;;;6.30;99.90;;;;;;4991619;28;19981;-48
2023/04/30 04:52:22;;;;;;;;;;;6.40;99.90;;;;;;4991586;28;19976;-44
2023/04/30 04:54:51;;;;;;;;;;;6.40;99.90;;;;;;4990208;28;19932;-47
2023/04/30 04:57:17;;;;;;;;;;;6.50;99.90;;;;;;4989694;28;19990;-48
2023/04/30 04:59:44;;;;;;;;;;;6.50;99.90;;;;;;4992448;28;20359;-49
2023/04/30 05:02:10;;;;;;;;;;;6.50;99.90;;;;;;4990101;28;19983;-44
2023/04/30 05:04:37;;;;;;;;;;;6.60;99.90;;;;;;4991627;28;20036;-48
2023/04/30 05:07:04;;;;;;;;;;;6.60;99.90;;;;;;4992055;28;20466;-47
2023/04/30 05:09:30;;;;;;;;;;;6.60;99.90;;;;;;4991268;28;19970;-50
2023/04/30 05:11:58;;;;;;;;;;;6.70;99.90;;;;;;4992126;28;19977;-49
2023/04/30 05:14:25;;;;;;;;;;;6.80;99.90;;;;;;4991286;28;20026;-49
2023/04/30 05:16:52;;;;;;;;;;;6.80;99.90;;;;;;4990094;28;19932;-54
2023/04/30 05:19:18;;;;;;;;;;;6.90;99.90;;;;;;4991503;28;19935;-55
2023/04/30 05:21:45;;;;;;;;;;;6.90;99.90;;;;;;4992721;28;19938;-51
2023/04/30 05:24:12;;;;;;;;;;;6.90;99.90;;;;;;4992751;28;19952;-51
2023/04/30 05:26:39;;;;;;;;;;;7.00;99.90;;;;;;4990669;28;19952;-49
2023/04/30 05:29:07;;;;;;;;;;;7.10;99.90;;;;;;4990504;28;19938;-51
2023/04/30 05:31:33;;;;;;;;;;;7.10;99.90;;;;;;4991884;28;19981;-43
2023/04/30 05:34:00;;;;;;;;;;;7.20;99.90;;;;;;4992089;28;19934;-55
2023/04/30 05:36:27;;;;;;;;;;;7.20;99.90;;;;;;4990254;28;19944;-46
2023/04/30 05:38:54;;;;;;;;;;;7.30;99.90;;;;;;4989295;28;20304;-53
2023/04/30 05:41:20;;;;;;;;;;;7.30;99.90;;;;;;4990683;28;19966;-50
2023/04/30 05:43:47;;;;;;;;;;;7.30;99.90;;;;;;4990026;28;20312;-51
2023/04/30 05:46:15;;;;;;;;;;;7.30;99.90;;;;;;4991642;28;20282;-48
2023/04/30 05:48:42;;;;;;;;;;;7.40;99.90;;;;;;4988618;28;19996;-50
2023/04/30 05:51:09;;;;;;;;;;;7.50;99.90;;;;;;4990180;28;20398;-50
2023/04/30 05:53:36;;;;;;;;;;;7.60;99.90;;;;;;4990688;28;20020;-51
2023/04/30 05:56:02;;;;;;;;;;;7.70;99.90;;;;;;4991087;28;19993;-50
2023/04/30 05:58:29;;;;;;;;;;;7.70;99.90;;;;;;4990096;28;19989;-53
2023/04/30 06:00:56;;;;;;;;;;;7.80;99.90;;;;;;4989648;28;19975;-52
2023/04/30 06:03:24;;;;;;;;;;;7.90;99.90;;;;;;4989962;28;20026;-47
2023/04/30 06:05:50;;;;;;;;;;;8.10;99.90;;;;;;4991187;28;19938;-50
2023/04/30 06:08:17;;;;;;;;;;;8.20;99.90;;;;;;4988307;28;20164;-50
2023/04/30 06:10:44;;;;;;;;;;;8.20;99.90;;;;;;4988491;28;19934;-49
2023/04/30 06:13:10;;;;;;;;;;;8.40;99.90;;;;;;4990132;28;20405;-46
2023/04/30 06:15:37;;;;;;;;;;;8.50;99.90;;;;;;4992946;28;20396;-50
2023/04/30 06:18:03;;;;;;;;;;;8.50;99.90;;;;;;4994690;28;20021;-50
2023/04/30 06:20:32;;;;;;;;;;;8.70;99.90;;;;;;4993957;28;20004;-47
2023/04/30 06:22:58;;;;;;;;;;;8.70;99.90;;;;;;4992629;28;19940;-43
2023/04/30 06:25:25;;;;;;;;;;;8.80;99.90;;;;;;4994938;28;20052;-47
2023/04/30 06:27:52;;;;;;;;;;;8.90;99.90;;;;;;4993999;28;19980;-51
2023/04/30 06:30:19;;;;;;;;;;;9.00;99.90;;;;;;4996294;28;19938;-49
2023/04/30 06:32:46;;;;;;;;;;;9.10;99.90;;;;;;4994086;28;19947;-48
2023/04/30 06:35:13;;;;;;;;;;;9.20;99.90;;;;;;4992907;28;20035;-51
2023/04/30 06:37:41;;;;;;;;;;;9.20;99.90;;;;;;4994392;28;19936;-49
2023/04/30 06:40:08;;;;;;;;;;;9.30;99.90;;;;;;4987723;28;19976;-51
2023/04/30 06:42:34;;;;;;;;;;;9.40;99.90;;;;;;4988547;28;19990;-42
2023/04/30 06:45:01;;;;;;;;;;;9.40;99.90;;;;;;4991505;28;20415;-48
2023/04/30 06:47:28;;;;;;;;;;;9.50;99.90;;;;;;4992947;28;19991;-50
2023/04/30 06:49:55;;;;;;;;;;;9.60;99.90;;;;;;4992172;28;19942;-50
2023/04/30 06:52:21;;;;;;;;;;;9.70;99.90;;;;;;4994087;28;19972;-42
2023/04/30 06:54:50;;;;;;;;;;;9.70;99.90;;;;;;4993927;28;20342;-48
2023/04/30 06:57:16;;;;;;;;;;;9.80;99.90;;;;;;4991421;28;19993;-47
2023/04/30 06:59:43;;;;;;;;;;;10.00;99.90;;;;;;4992501;28;19934;-48
2023/04/30 07:02:09;;;;;;;;;;;10.10;99.90;;;;;;4992092;28;20396;-43
2023/04/30 07:04:36;;;;;;;;;;;10.10;99.90;;;;;;4992877;28;20036;-48
2023/04/30 07:07:03;;;;;;;;;;;10.30;99.90;;;;;;4989752;28;19993;-49
2023/04/30 07:09:29;;;;;;;;;;;10.30;99.90;;;;;;4992658;28;19940;-46
2023/04/30 07:11:58;;;;;;;;;;;10.40;99.90;;;;;;4990996;28;20435;-48
2023/04/30 07:14:25;;;;;;;;;;;10.50;99.90;;;;;;4991672;28;20409;-45
2023/04/30 07:16:52;;;;;;;;;;;10.70;99.90;;;;;;4992414;28;19980;-44
2023/04/30 07:19:18;;;;;;;;;;;10.80;99.90;;;;;;4992305;28;20077;-47
2023/04/30 07:21:45;;;;;;;;;;;10.90;99.90;;;;;;4993946;28;20456;-45
2023/04/30 07:24:12;;;;;;;;;;;11.10;99.90;;;;;;4997290;28;19981;-45
2023/04/30 07:26:38;;;;;;;;;;;11.20;99.90;;;;;;4988425;28;20049;-45
2023/04/30 07:29:06;;;;;;;;;;;11.20;99.90;;;;;;4992623;28;19921;-41
2023/04/30 07:31:33;;;;;;;;;;;11.40;99.90;;;;;;4984120;28;20376;-45
2023/04/30 07:33:59;;;;;;;;;;;11.50;99.90;;;;;;4990703;28;20069;-45
2023/04/30 07:36:26;;;;;;;;;;;11.60;99.90;;;;;;4992473;28;20241;-43
2023/04/30 07:38:53;;;;;;;;;;;11.70;99.90;;;;;;4992876;28;20014;-44
2023/04/30 07:41:20;;;;;;;;;;;11.80;99.90;;;;;;4993565;28;20401;-42
2023/04/30 07:43:47;;;;;;;;;;;11.90;99.90;;;;;;4993361;28;19939;-46
2023/04/30 07:46:15;;;;;;;;;;;12.00;99.90;;;;;;4992119;28;20469;-43
2023/04/30 07:48:41;;;;;;;;;;;12.10;99.90;;;;;;4993192;28;19993;-43
2023/04/30 07:51:08;;;;;;;;;;;12.20;99.90;;;;;;4994289;28;20024;-44
2023/04/30 07:53:35;;;;;;;;;;;12.40;99.90;;;;;;4992351;28;19988;-42
2023/04/30 07:56:01;;;;;;;;;;;12.40;99.90;;;;;;4993133;28;19937;-44
2023/04/30 07:58:28;;;;;;;;;;;12.50;99.90;;;;;;4993659;28;19939;-45
2023/04/30 08:00:55;;;;;;;;;;;12.50;99.90;;;;;;4992149;28;20464;-46
2023/04/30 08:03:23;;;;;;;;;;;12.50;99.90;;;;;;4991611;28;20020;-46
2023/04/30 08:05:49;;;;;;;;;;;12.60;99.90;;;;;;4992761;28;20044;-46
2023/04/30 08:08:16;;;;;;;;;;;12.70;99.90;;;;;;4992434;28;19939;-44
2023/04/30 08:10:42;;;;;;;;;;;12.80;99.90;;;;;;4992190;28;20427;-46
2023/04/30 08:13:09;;;;;;;;;;;12.90;99.90;;;;;;4992492;28;19988;-48
2023/04/30 08:15:36;;;;;;;;;;;13.10;99.90;;;;;;4991697;28;19996;-44
2023/04/30 08:18:04;;;;;;;;;;;13.20;99.90;;;;;;4992376;28;19951;-45
2023/04/30 08:20:32;;;;;;;;;;;13.40;99.90;;;;;;4990412;28;19932;-45
2023/04/30 08:22:58;;;;;;;;;;;13.50;99.90;;;;;;4990368;28;19985;-45
2023/04/30 08:25:25;;;;;;;;;;;13.40;99.90;;;;;;4994437;28;20032;-45
2023/04/30 08:27:52;;;;;;;;;;;13.50;99.90;;;;;;4986785;28;19934;-48
2023/04/30 08:30:18;;;;;;;;;;;13.60;99.90;;;;;;4991992;28;20047;-47
2023/04/30 08:32:45;;;;;;;;;;;13.70;99.90;;;;;;4991917;28;19994;-46
2023/04/30 08:35:12;;;;;;;;;;;13.60;99.90;;;;;;4990267;28;19935;-45
2023/04/30 08:37:40;;;;;;;;;;;13.70;99.90;;;;;;4990903;28;20438;-50
2023/04/30 08:40:10;;;;;;;;;;;13.80;99.90;;;;;;4992669;28;20072;-47
2023/04/30 08:42:37;;;;;;;;;;;13.80;99.90;;;;;;4992240;28;19938;-43
2023/04/30 08:45:04;;;;;;;;;;;13.90;99.90;;;;;;4990591;28;20393;-46
2023/04/30 08:47:30;;;;;;;;;;;14.00;99.90;;;;;;4989334;28;19979;-45
2023/04/30 08:49:57;;;;;;;;;;;14.10;99.90;;;;;;4992727;28;20438;-47
2023/04/30 08:52:24;;;;;;;;;;;14.30;99.90;;;;;;4992543;28;19970;-46
2023/04/30 08:54:53;;;;;;;;;;;14.30;99.90;;;;;;4990046;28;20018;-43
2023/04/30 08:57:19;;;;;;;;;;;14.40;99.90;;;;;;4990763;28;20384;-48
2023/04/30 08:59:46;;;;;;;;;;;14.50;99.90;;;;;;4987817;28;20275;-47
2023/04/30 09:02:13;;;;;;;;;;;14.60;99.90;;;;;;4990659;28;19959;-42
2023/04/30 09:04:39;;;;;;;;;;;14.60;99.90;;;;;;4990558;28;20034;-45
2023/04/30 09:07:06;;;;;;;;;;;14.70;99.90;;;;;;4991631;28;20029;-45
2023/04/30 09:09:37;;;;;;;;;;;14.80;99.90;;;;;;4990228;28;19972;-43
2023/04/30 09:12:13;;;;;;;;;;;15.10;99.90;;;;;;4988455;28;20037;-44
2023/04/30 09:14:40;;;;;;;;;;;15.20;99.90;;;;;;4992534;28;20044;-45
2023/04/30 09:17:07;;;;;;;;;;;15.30;99.90;;;;;;4992271;28;19945;-46
2023/04/30 09:19:34;;;;;;;;;;;15.40;99.90;;;;;;4992002;28;19938;-44
2023/04/30 09:22:12;;;;;;;;;;;15.40;99.90;;;;;;4991814;28;19980;-49
2023/04/30 09:24:45;;;;;;;;;;;15.50;99.90;;;;;;4990752;28;19996;-45
2023/04/30 09:27:16;;;;;;;;;;;15.60;99.90;;;;;;4991346;28;20400;-45
2023/04/30 09:29:43;;;;;;;;;;;15.80;99.90;;;;;;4991314;28;20033;-45
2023/04/30 09:32:10;;;;;;;;;;;16.00;99.90;;;;;;4989610;28;19943;-46
2023/04/30 09:34:37;;;;;;;;;;;16.10;99.70;;;;;;4991041;28;19936;-44
2023/04/30 09:37:03;;;;;;;;;;;16.10;99.10;;;;;;4991917;28;20352;-46
2023/04/30 09:39:30;;;;;;;;;;;16.20;98.30;;;;;;4992980;28;19944;-44
2023/04/30 09:42:06;;;;;;;;;;;16.40;98.10;;;;;;4992299;28;19939;-45
2023/04/30 09:44:36;;;;;;;;;;;16.50;99.40;;;;;;4991154;28;19985;-45
2023/04/30 09:47:03;;;;;;;;;;;16.70;99.90;;;;;;4990534;28;19951;-44
2023/04/30 09:49:30;;;;;;;;;;;16.60;98.40;;;;;;4994568;28;19941;-44
2023/04/30 09:51:56;;;;;;;;;;;16.70;99.90;;;;;;4995428;28;19943;-41
2023/04/30 09:54:23;;;;;;;;;;;16.80;99.90;;;;;;4993310;28;19945;-44
2023/04/30 09:56:50;;;;;;;;;;;17.10;99.80;;;;;;4995892;28;19939;-43
2023/04/30 09:59:17;;;;;;;;;;;17.20;98.80;;;;;;4995098;28;19936;-44
2023/04/30 10:01:45;;;;;;;;;;;17.20;96.10;;;;;;4995125;28;19941;-45
2023/04/30 10:04:12;;;;;;;;;;;17.20;99.90;;;;;;4995685;28;19940;-46
2023/04/30 10:06:38;;;;;;;;;;;17.30;95.40;;;;;;4994235;28;20042;-43
2023/04/30 10:09:05;;;;;;;;;;;17.30;95.70;;;;;;4995153;28;19981;-43
2023/04/30 10:11:32;;;;;;;;;;;17.50;96.30;;;;;;4993488;28;19938;-45
2023/04/30 10:14:00;;;;;;;;;;;17.60;98.10;;;;;;4987222;28;19995;-44
2023/04/30 10:16:30;;;;;;;;;;;17.60;94.60;;;;;;4994580;28;19942;-47
2023/04/30 10:18:59;;;;;;;;;;;17.60;93.70;;;;;;4993288;28;19982;-46
2023/04/30 10:21:26;;;;;;;;;;;17.40;95.10;;;;;;4994396;28;19938;-47
2023/04/30 10:23:53;;;;;;;;;;;17.60;96.60;;;;;;4994334;28;19946;-47
2023/04/30 10:26:20;;;;;;;;;;;17.70;93.80;;;;;;4996656;28;19965;-43
2023/04/30 10:28:46;;;;;;;;;;;17.70;95.50;;;;;;4994633;28;19951;-47
2023/04/30 10:31:13;;;;;;;;;;;17.80;94.80;;;;;;4995055;28;19988;-48
2023/04/30 10:33:48;;;;;;;;;;;17.90;94.60;;;;;;4993971;28;20310;-47
2023/04/30 10:36:18;;;;;;;;;;;17.90;93.00;;;;;;4993080;28;19971;-42
2023/04/30 10:38:44;;;;;;;;;;;17.80;95.60;;;;;;4994910;28;20467;-45
2023/04/30 10:41:11;;;;;;;;;;;17.80;94.70;;;;;;5001899;28;19938;-44
2023/04/30 10:43:38;;;;;;;;;;;17.80;94.90;;;;;;4995809;28;19940;-43
2023/04/30 10:46:04;;;;;;;;;;;17.90;93.00;;;;;;4994193;28;19953;-46
2023/04/30 10:48:34;;;;;;;;;;;17.90;95.60;;;;;;4994389;28;20379;-43
2023/04/30 10:51:00;;;;;;;;;;;17.90;95.20;;;;;;4995013;28;19937;-43
2023/04/30 10:53:31;;;;;;;;;;;17.90;93.70;;;;;;4993333;28;19978;-45
2023/04/30 10:55:58;;;;;;;;;;;17.90;93.60;;;;;;4990806;28;19973;-42
2023/04/30 10:58:25;;;;;;;;;;;18.00;96.50;;;;;;4992504;28;20356;-45
2023/04/30 11:00:59;;;;;;;;;;;18.20;97.10;;;;;;4993303;28;19934;-44
2023/04/30 11:03:27;;;;;;;;;;;18.30;94.10;;;;;;4993450;28;19975;-42
2023/04/30 11:05:54;;;;;;;;;;;18.30;93.30;;;;;;4992931;28;20122;-44
2023/04/30 11:08:20;;;;;;;;;;;18.40;93.70;;;;;;4992721;28;19936;-43
2023/04/30 11:10:58;;;;;;;;;;;18.40;95.20;;;;;;4994090;28;19940;-46
2023/04/30 11:13:26;;;;;;;;;;;18.50;94.80;;;;;;4993505;28;19980;-44
2023/04/30 11:15:52;;;;;;;;;;;18.70;92.00;;;;;;4993891;28;19935;-44
2023/04/30 11:18:19;;;;;;;;;;;18.70;90.30;;;;;;4992530;28;20024;-43
2023/04/30 11:20:49;;;;;;;;;;;18.60;89.60;;;;;;4994173;28;19933;-40
2023/04/30 11:23:16;;;;;;;;;;;18.60;91.80;;;;;;4993667;28;19947;-42
2023/04/30 11:25:43;;;;;;;;;;;18.50;92.80;;;;;;4999388;28;19972;-43
2023/04/30 11:28:15;;;;;;;;;;;18.70;93.50;;;;;;5002312;28;19994;-41
2023/04/30 11:30:42;;;;;;;;;;;18.80;94.20;;;;;;4993240;28;19934;-43
2023/04/30 11:33:08;;;;;;;;;;;19.00;93.30;;;;;;4991527;28;20422;-43
2023/04/30 11:35:35;;;;;;;;;;;19.20;91.10;;;;;;4993287;28;20277;-41
2023/04/30 11:38:02;;;;;;;;;;;19.20;91.90;;;;;;4987201;28;19988;-42
2023/04/30 11:40:29;;;;;;;;;;;19.20;92.10;;;;;;4987312;28;19940;-42
2023/04/30 11:42:56;;;;;;;;;;;19.10;91.00;;;;;;4979090;28;19938;-46
2023/04/30 11:45:26;;;;;;;;;;;19.30;91.60;;;;;;4990207;28;20010;-41
2023/04/30 11:47:53;;;;;;;;;;;19.40;88.70;;;;;;4992275;28;19941;-44
2023/04/30 11:50:26;;;;;;;;;;;19.40;86.30;;;;;;4987793;28;19990;-45
2023/04/30 11:52:53;;;;;;;;;;;19.40;90.20;;;;;;4990826;28;19980;-44
2023/04/30 11:55:20;;;;;;;;;;;19.50;90.20;;;;;;4992365;28;19934;-45
2023/04/30 11:57:47;;;;;;;;;;;19.60;87.30;;;;;;4992655;28;20374;-44
2023/04/30 12:00:14;;;;;;;;;;;19.70;88.60;;;;;;4984394;28;20351;-43
2023/04/30 12:02:43;;;;;;;;;;;19.80;90.90;;;;;;4983842;28;20022;-47
2023/04/30 12:05:14;;;;;;;;;;;19.90;88.80;;;;;;4988693;28;19959;-45
2023/04/30 12:07:45;;;;;;;;;;;19.90;88.60;;;;;;4989532;28;20386;-44
2023/04/30 12:10:11;;;;;;;;;;;19.90;88.30;;;;;;4991563;28;20374;-46
2023/04/30 12:12:38;;;;;;;;;;;20.00;90.10;;;;;;4980218;28;19997;-43
2023/04/30 12:15:11;;;;;;;;;;;20.20;90.10;;;;;;4989643;28;19992;-43
2023/04/30 12:17:37;;;;;;;;;;;20.20;87.90;;;;;;4990954;28;19934;-42
2023/04/30 12:20:06;;;;;;;;;;;20.20;86.40;;;;;;4990372;28;20038;-43
2023/04/30 12:22:32;;;;;;;;;;;20.20;88.60;;;;;;4991331;28;19940;-45
2023/04/30 12:24:59;;;;;;;;;;;20.30;86.20;;;;;;4987237;28;20027;-44
2023/04/30 12:27:26;;;;;;;;;;;20.50;87.10;;;;;;4988113;28;20008;-45
2023/04/30 12:29:53;;;;;;;;;;;20.60;83.40;;;;;;4988307;28;21499;-48
2023/04/30 12:32:20;;;;;;;;;;;20.60;88.10;;;;;;4990395;28;20030;-43
2023/04/30 12:34:47;;;;;;;;;;;20.60;84.40;;;;;;4989914;28;19981;-43
2023/04/30 12:37:16;;;;;;;;;;;20.50;79.30;;;;;;4992055;28;19936;-42
2023/04/30 12:39:43;;;;;;;;;;;20.40;80.80;;;;;;4987938;28;20437;-43
2023/04/30 12:42:10;;;;;;;;;;;20.50;82.50;;;;;;4987190;28;20414;-41
2023/04/30 12:44:42;;;;;;;;;;;20.50;85.30;;;;;;4988712;28;19935;-44
2023/04/30 12:47:08;;;;;;;;;;;20.60;80.70;;;;;;4991796;28;20174;-44
2023/04/30 12:49:35;;;;;;;;;;;20.60;79.70;;;;;;4988652;28;19933;-42
2023/04/30 12:52:02;;;;;;;;;;;20.60;79.00;;;;;;4987796;28;19939;-42
2023/04/30 12:54:31;;;;;;;;;;;20.70;80.10;;;;;;4989256;28;19942;-41
2023/04/30 12:56:58;;;;;;;;;;;20.80;80.90;;;;;;4990332;28;19934;-42
2023/04/30 12:59:25;;;;;;;;;;;20.90;82.40;;;;;;4991154;28;19939;-42
2023/04/30 13:01:53;;;;;;;;;;;21.10;78.50;;;;;;4988410;28;20356;-42
2023/04/30 13:04:20;;;;;;;;;;;21.10;76.60;;;;;;4990883;28;19938;-41
2023/04/30 13:06:46;;;;;;;;;;;21.00;76.00;;;;;;4989465;28;19978;-41
2023/04/30 13:09:13;;;;;;;;;;;21.00;79.90;;;;;;4991347;28;20293;-42
2023/04/30 13:11:41;;;;;;;;;;;21.20;77.80;;;;;;4990000;28;19980;-42
2023/04/30 13:14:09;;;;;;;;;;;21.20;75.30;;;;;;4990429;28;19989;-42
2023/04/30 13:16:36;;;;;;;;;;;21.30;77.50;;;;;;4990778;28;19947;-43
2023/04/30 13:19:04;;;;;;;;;;;21.40;80.00;;;;;;4987726;28;20343;-44
2023/04/30 13:21:31;;;;;;;;;;;21.40;79.40;;;;;;4991187;28;19950;-44
2023/04/30 13:23:58;;;;;;;;;;;21.60;80.40;;;;;;4993839;28;19934;-40
2023/04/30 13:26:25;;;;;;;;;;;21.70;74.90;;;;;;4996180;28;19994;-43
2023/04/30 13:28:53;;;;;;;;;;;21.60;74.20;;;;;;4985571;28;20027;-42
2023/04/30 13:31:19;;;;;;;;;;;21.60;77.50;;;;;;4992133;28;20301;-43
2023/04/30 13:33:46;;;;;;;;;;;21.70;75.50;;;;;;4991644;28;20381;-44
2023/04/30 13:36:13;;;;;;;;;;;21.80;76.60;;;;;;4995038;28;20410;-41
2023/04/30 13:38:40;;;;;;;;;;;21.90;78.90;;;;;;4995668;28;20389;-41
2023/04/30 13:41:07;;;;;;;;;;;22.00;77.00;;;;;;4992887;28;19935;-41
2023/04/30 13:43:33;;;;;;;;;;;22.10;70.00;;;;;;4998208;28;20039;-44
2023/04/30 13:46:01;;;;;;;;;;;22.00;76.90;;;;;;4992438;28;19958;-42
2023/04/30 13:48:28;;;;;;;;;;;22.10;75.70;;;;;;4994739;28;20027;-45
2023/04/30 13:50:54;;;;;;;;;;;21.90;73.80;;;;;;4999231;28;19942;-42
2023/04/30 13:53:21;;;;;;;;;;;21.60;70.30;;;;;;4989922;28;20000;-43
2023/04/30 13:55:48;;;;;;;;;;;21.30;75.20;;;;;;4989653;28;20270;-44
2023/04/30 13:58:14;;;;;;;;;;;21.20;78.40;;;;;;4994621;28;19969;-44
2023/04/30 14:00:41;;;;;;;;;;;21.40;75.90;;;;;;4996053;28;19942;-43
2023/04/30 14:03:10;;;;;;;;;;;21.60;75.40;;;;;;4994666;28;19944;-42
2023/04/30 14:05:37;;;;;;;;;;;21.60;72.00;;;;;;4994921;28;20293;-41
2023/04/30 14:08:04;;;;;;;;;;;21.60;75.60;;;;;;4993701;28;19993;-41
2023/04/30 14:10:31;;;;;;;;;;;21.70;73.50;;;;;;4992554;28;20020;-40
2023/04/30 14:12:57;;;;;;;;;;;21.70;70.00;;;;;;4987796;28;20395;-42
2023/04/30 14:15:24;;;;;;;;;;;21.70;73.10;;;;;;4993632;28;20350;-41
2023/04/30 14:17:51;;;;;;;;;;;21.60;72.80;;;;;;4992727;28;20554;-42
2023/04/30 14:20:19;;;;;;;;;;;21.70;77.20;;;;;;4990459;28;20026;-43
2023/04/30 14:22:46;;;;;;;;;;;21.80;70.00;;;;;;4988788;28;20027;-44